Time;durP1;ratioP1;P1;durP2;ratioP2;P2;SDS_P1;SDS_P2;PMS_P1;PMS_P2;Temp;Humidity;BMP_temperature;BMP_pressure;BME280_temperature;BME280_humidity;BME280_pressure;Samples;Min_cycle;Max_cycle;Signal;HPM_P1;HPM_P2
2023/09/08 00:00:57;;;;;;;;;10.00;9.67;;;;;25.40;63.58;100149.09;5050355;28;45659;-69
2023/09/08 00:03:23;;;;;;;;;13.67;12.00;;;;;25.56;63.96;100176.13;5049643;28;45404;-69
2023/09/08 00:05:48;;;;;;;;;8.33;8.33;;;;;25.54;63.58;100182.47;5045124;28;45474;-69
2023/09/08 00:08:15;;;;;;;;;10.33;9.00;;;;;25.52;63.73;100176.31;5051429;28;46220;-69
2023/09/08 00:10:40;;;;;;;;;10.33;10.33;;;;;25.50;63.80;100180.84;5050370;28;45650;-69
2023/09/08 00:13:06;;;;;;;;;11.00;10.33;;;;;25.47;63.96;100180.97;5046910;28;45485;-70
2023/09/08 00:15:34;;;;;;;;;11.00;10.00;;;;;25.45;63.84;100178.34;5049218;28;45244;-69
2023/09/08 00:18:00;;;;;;;;;13.00;11.00;;;;;25.49;64.01;100184.47;5044341;28;45404;-69
2023/09/08 00:20:26;;;;;;;;;11.67;11.33;;;;;25.44;64.29;100184.63;5053753;28;45518;-69
2023/09/08 00:22:51;;;;;;;;;11.00;11.00;;;;;25.36;64.62;100192.06;5051218;28;45468;-69
2023/09/08 00:25:17;;;;;;;;;12.00;11.00;;;;;25.36;64.44;100184.03;5045561;28;45339;-69
2023/09/08 00:27:42;;;;;;;;;10.00;9.00;;;;;25.38;64.04;100184.84;5046813;28;46366;-70
2023/09/08 00:30:08;;;;;;;;;10.33;10.00;;;;;25.35;64.04;100180.50;5054669;28;45378;-69
2023/09/08 00:32:34;;;;;;;;;12.00;11.67;;;;;25.32;64.97;100188.63;5044283;28;45584;-69
2023/09/08 00:35:00;;;;;;;;;12.67;11.67;;;;;25.26;64.89;100187.97;5045785;28;45365;-69
2023/09/08 00:37:25;;;;;;;;;11.00;10.00;;;;;25.26;64.39;100179.97;5043170;28;45339;-69
2023/09/08 00:39:51;;;;;;;;;11.67;11.67;;;;;25.37;64.26;100188.47;5055331;28;45493;-69
2023/09/08 00:42:16;;;;;;;;;12.33;10.67;;;;;25.39;64.02;100189.28;5046690;28;45267;-69
2023/09/08 00:44:42;;;;;;;;;10.33;10.33;;;;;25.43;63.95;100201.59;5051408;28;45388;-69
2023/09/08 00:47:07;;;;;;;;;9.67;9.67;;;;;25.47;63.82;100203.25;5042191;28;45320;-69
2023/09/08 00:49:33;;;;;;;;;8.00;8.00;;;;;25.45;63.28;100198.88;5045078;28;45513;-69
2023/09/08 00:51:59;;;;;;;;;12.00;10.33;;;;;25.52;63.30;100213.75;5049845;28;45325;-70
2023/09/08 00:54:25;;;;;;;;;12.00;10.33;;;;;25.46;63.31;100214.84;5045010;28;45549;-69
2023/09/08 00:56:57;;;;;;;;;12.33;10.67;;;;;25.46;63.27;100230.91;5047722;28;45491;-70
2023/09/08 00:59:23;;;;;;;;;10.67;10.33;;;;;25.32;63.39;100220.69;5046999;28;45509;-69
2023/09/08 01:01:48;;;;;;;;;8.67;6.67;;;;;25.42;62.25;100236.41;5047751;28;45319;-69
2023/09/08 01:04:14;;;;;;;;;10.33;9.33;;;;;25.42;62.57;100229.25;5044884;28;45570;-69
2023/09/08 01:06:40;;;;;;;;;13.33;10.67;;;;;25.30;63.22;100221.69;5043906;28;45551;-69
2023/09/08 01:09:06;;;;;;;;;13.00;12.00;;;;;24.93;65.22;100245.22;5048816;28;45508;-69
2023/09/08 01:11:32;;;;;;;;;13.33;11.67;;;;;24.74;65.81;100244.94;5050341;28;45423;-69
2023/09/08 01:13:57;;;;;;;;;11.00;10.67;;;;;24.58;66.21;100255.28;5049106;28;45560;-69
2023/09/08 01:16:23;;;;;;;;;12.00;9.33;;;;;24.67;65.15;100243.44;5045074;28;45512;-69
2023/09/08 01:18:50;;;;;;;;;11.00;10.00;;;;;24.67;65.37;100251.44;5048543;28;45978;-69
2023/09/08 01:21:33;;;;;;;;;8.67;8.67;;;;;24.69;65.11;100243.34;5045264;28;45355;-69
2023/09/08 01:24:37;;;;;;;;;11.00;10.67;;;;;24.75;65.29;100248.50;5041338;28;45443;-69
2023/09/08 01:27:03;;;;;;;;;11.33;11.33;;;;;24.78;64.82;100240.38;5048764;28;46226;-69
2023/09/08 01:29:30;;;;;;;;;10.67;10.33;;;;;24.78;64.16;100230.56;5043896;28;45820;-69
2023/09/08 01:31:57;;;;;;;;;12.00;11.67;;;;;24.85;64.39;100239.28;5047167;28;45744;-69
2023/09/08 01:34:23;;;;;;;;;10.67;9.67;;;;;24.90;64.13;100234.63;5047234;28;45252;-69
2023/09/08 01:36:49;;;;;;;;;10.67;10.33;;;;;24.76;64.44;100229.75;5049359;28;45351;-69
2023/09/08 01:39:14;;;;;;;;;11.00;10.33;;;;;24.64;65.08;100234.63;5044989;28;45480;-69
2023/09/08 01:41:40;;;;;;;;;10.67;8.00;;;;;24.58;65.81;100235.72;5042593;28;45405;-69
2023/09/08 01:44:10;;;;;;;;;8.00;8.00;;;;;24.43;65.77;100223.69;5048020;28;45630;-69
2023/09/08 01:46:35;;;;;;;;;11.33;10.00;;;;;24.37;65.32;100230.13;5046076;28;45584;-69
2023/09/08 01:49:01;;;;;;;;;13.00;11.67;;;;;24.28;66.16;100237.53;5046489;28;46047;-69
2023/09/08 01:51:27;;;;;;;;;12.00;11.00;;;;;24.16;66.44;100241.47;5046422;28;45475;-69
2023/09/08 01:53:52;;;;;;;;;11.00;10.67;;;;;24.18;66.11;100242.28;5046261;28;45566;-69
2023/09/08 01:56:18;;;;;;;;;10.00;10.00;;;;;24.22;65.67;100246.63;5046603;28;45454;-69
2023/09/08 01:58:44;;;;;;;;;13.33;11.67;;;;;24.25;65.51;100248.31;5042459;28;45359;-69
2023/09/08 02:01:09;;;;;;;;;15.00;13.67;;;;;24.32;66.38;100239.19;5035802;28;45515;-69
2023/09/08 02:03:35;;;;;;;;;12.67;11.00;;;;;24.40;66.90;100240.69;5036107;28;45496;-69
2023/09/08 02:06:01;;;;;;;;;14.67;13.33;;;;;24.48;66.68;100242.25;5039372;28;45738;-69
2023/09/08 02:08:26;;;;;;;;;13.67;11.33;;;;;24.58;67.72;100230.38;5046125;28;45478;-69
2023/09/08 02:10:52;;;;;;;;;18.00;16.33;;;;;24.58;68.50;100233.91;5058292;28;45318;-69
2023/09/08 02:13:17;;;;;;;;;17.00;16.33;;;;;24.63;69.13;100236.44;5058627;28;45392;-69
2023/09/08 02:15:43;;;;;;;;;14.33;14.33;;;;;24.67;69.06;100234.53;5057298;28;45210;-69
2023/09/08 02:18:09;;;;;;;;;18.33;17.33;;;;;24.64;69.49;100232.84;5057856;28;45438;-69
2023/09/08 02:20:34;;;;;;;;;17.33;16.33;;;;;24.63;69.21;100216.84;5057145;28;45632;-69
2023/09/08 02:23:05;;;;;;;;;18.67;17.00;;;;;24.64;69.99;100227.50;5058734;28;45395;-69
2023/09/08 02:25:31;;;;;;;;;16.33;14.33;;;;;24.73;69.32;100237.88;5057462;28;46253;-69
2023/09/08 02:27:57;;;;;;;;;16.00;15.33;;;;;24.76;69.61;100232.41;5058044;28;45508;-69
2023/09/08 02:30:22;;;;;;;;;16.67;15.00;;;;;24.80;69.46;100231.38;5056457;28;45512;-70
2023/09/08 02:32:48;;;;;;;;;16.67;15.33;;;;;24.80;69.58;100227.84;5058285;28;45307;-71
2023/09/08 02:35:14;;;;;;;;;17.00;13.33;;;;;24.83;69.80;100229.53;5057250;28;45350;-69
2023/09/08 02:37:40;;;;;;;;;15.00;14.67;;;;;24.86;69.80;100232.97;5045487;28;45227;-69
2023/09/08 02:40:07;;;;;;;;;14.33;14.33;;;;;24.85;69.83;100220.56;5039043;28;45403;-69
2023/09/08 02:42:32;;;;;;;;;19.33;17.33;;;;;24.90;69.76;100221.25;5049239;28;45817;-69
2023/09/08 02:44:58;;;;;;;;;15.33;13.33;;;;;24.84;69.98;100209.94;5059160;28;45979;-70
2023/09/08 02:47:24;;;;;;;;;14.67;14.67;;;;;24.86;69.47;100208.06;5057884;28;45256;-70
2023/09/08 02:49:49;;;;;;;;;15.00;14.67;;;;;24.89;70.14;100218.63;5057678;28;45331;-70
2023/09/08 02:52:15;;;;;;;;;16.33;16.00;;;;;24.87;69.61;100209.81;5057875;28;45374;-70
2023/09/08 02:54:41;;;;;;;;;15.33;13.67;;;;;24.94;69.55;100211.34;5056614;28;47737;-70
2023/09/08 02:57:06;;;;;;;;;15.00;13.67;;;;;24.97;69.81;100213.94;5053283;28;45492;-70
2023/09/08 02:59:32;;;;;;;;;16.67;15.67;;;;;24.97;69.30;100209.44;5044710;28;45403;-69
2023/09/08 03:01:59;;;;;;;;;16.00;13.33;;;;;24.93;69.21;100204.25;5048224;28;45430;-69
2023/09/08 03:04:25;;;;;;;;;16.33;15.33;;;;;24.98;69.25;100204.97;5038267;28;46487;-70
2023/09/08 03:06:50;;;;;;;;;18.67;15.00;;;;;24.93;69.59;100202.47;5049646;28;45368;-69
2023/09/08 03:09:16;;;;;;;;;17.33;16.67;;;;;24.92;69.06;100214.06;5056438;28;45631;-70
2023/09/08 03:11:41;;;;;;;;;15.33;14.33;;;;;24.93;68.83;100206.91;5057630;28;45505;-71
2023/09/08 03:14:07;;;;;;;;;14.33;13.00;;;;;24.84;67.70;100201.91;5057607;28;45520;-69
2023/09/08 03:16:33;;;;;;;;;11.67;11.00;;;;;24.81;67.36;100201.09;5053647;28;45621;-70
2023/09/08 03:18:59;;;;;;;;;13.33;12.00;;;;;24.77;67.90;100202.13;5057221;28;45513;-70
2023/09/08 03:21:24;;;;;;;;;16.33;13.67;;;;;24.74;67.39;100204.88;5056845;28;45396;-69
2023/09/08 03:23:50;;;;;;;;;14.00;12.33;;;;;24.73;67.14;100204.94;5057262;28;45871;-69
2023/09/08 03:26:16;;;;;;;;;11.33;10.33;;;;;24.69;66.70;100205.97;5056131;28;45366;-73
2023/09/08 03:28:43;;;;;;;;;12.33;12.33;;;;;24.61;66.75;100200.88;5056143;28;45413;-69
2023/09/08 03:31:08;;;;;;;;;14.00;12.33;;;;;24.44;67.26;100203.22;5057068;28;45668;-72
2023/09/08 03:33:34;;;;;;;;;7.67;7.67;;;;;24.33;67.15;100209.78;5042895;28;45960;-70
2023/09/08 03:36:00;;;;;;;;;11.00;11.00;;;;;24.40;66.98;100200.63;5054836;28;45654;-69
2023/09/08 03:38:26;;;;;;;;;11.00;11.00;;;;;24.39;66.53;100195.34;5057147;28;45487;-70
2023/09/08 03:40:52;;;;;;;;;9.67;8.33;;;;;24.37;66.66;100184.75;5055769;28;45427;-70
2023/09/08 03:43:17;;;;;;;;;13.00;11.67;;;;;24.32;67.35;100186.66;5052266;28;45433;-71
2023/09/08 03:45:44;;;;;;;;;12.67;12.67;;;;;24.27;66.85;100185.94;5052380;28;45605;-70
2023/09/08 03:48:09;;;;;;;;;14.33;13.67;;;;;24.34;67.00;100192.84;5048329;28;45382;-70
2023/09/08 03:50:35;;;;;;;;;10.00;10.00;;;;;24.37;66.74;100184.75;5049941;28;45529;-70
2023/09/08 03:53:01;;;;;;;;;12.00;11.00;;;;;24.40;66.96;100189.97;5050769;28;46585;-70
2023/09/08 03:55:27;;;;;;;;;12.00;11.00;;;;;24.25;67.13;100181.56;5053625;28;45576;-70
2023/09/08 03:57:52;;;;;;;;;16.00;14.67;;;;;24.10;67.73;100188.28;5051831;28;45425;-70
2023/09/08 04:00:20;;;;;;;;;12.00;10.00;;;;;24.04;67.83;100177.81;5046210;28;45315;-70
2023/09/08 04:02:46;;;;;;;;;14.00;14.00;;;;;24.16;67.97;100182.75;5056320;28;46020;-70
2023/09/08 04:05:11;;;;;;;;;11.00;11.00;;;;;24.21;67.62;100179.03;5040142;28;45785;-70
2023/09/08 04:07:37;;;;;;;;;12.00;12.00;;;;;24.19;67.57;100177.31;5049087;28;45540;-70
2023/09/08 04:10:03;;;;;;;;;11.00;11.00;;;;;24.16;67.58;100177.41;5046387;28;45548;-70
2023/09/08 04:12:29;;;;;;;;;13.33;10.67;;;;;24.25;66.81;100189.59;5046449;28;45518;-70
2023/09/08 04:14:54;;;;;;;;;12.00;11.00;;;;;24.27;67.09;100190.41;5052369;28;45556;-70
2023/09/08 04:17:20;;;;;;;;;13.33;13.00;;;;;24.21;66.99;100191.47;5055645;28;45552;-70
2023/09/08 04:19:46;;;;;;;;;10.33;9.67;;;;;24.26;66.90;100186.88;5057105;28;45529;-70
2023/09/08 04:22:11;;;;;;;;;11.33;10.00;;;;;24.21;66.86;100171.03;5056739;28;45655;-70
2023/09/08 04:24:37;;;;;;;;;14.00;11.67;;;;;24.14;68.03;100179.25;5056202;28;45768;-70
2023/09/08 04:27:04;;;;;;;;;11.67;11.67;;;;;24.11;68.23;100187.34;5037349;28;45304;-70
2023/09/08 04:29:30;;;;;;;;;15.33;14.67;;;;;24.15;68.36;100186.34;5044147;28;45422;-70
2023/09/08 04:31:55;;;;;;;;;11.33;10.67;;;;;24.14;66.99;100179.25;5056599;28;45505;-70
2023/09/08 04:34:21;;;;;;;;;14.00;13.67;;;;;24.16;66.64;100174.75;5056026;28;45561;-70
2023/09/08 04:36:47;;;;;;;;;14.33;13.00;;;;;24.24;66.39;100180.72;5055375;28;45429;-70
2023/09/08 04:39:15;;;;;;;;;12.00;12.00;;;;;24.23;66.71;100178.94;5055939;28;45414;-70
2023/09/08 04:41:40;;;;;;;;;12.00;12.00;;;;;24.22;66.86;100175.41;5049619;28;46206;-70
2023/09/08 04:44:06;;;;;;;;;13.67;12.33;;;;;24.20;66.97;100173.72;5056457;28;45563;-69
2023/09/08 04:46:31;;;;;;;;;16.00;12.33;;;;;24.31;66.99;100178.69;5040142;28;45422;-70
2023/09/08 04:48:57;;;;;;;;;13.67;12.67;;;;;24.29;66.94;100177.88;5056045;28;45522;-70
2023/09/08 04:51:23;;;;;;;;;11.00;9.00;;;;;24.21;66.02;100176.34;5055793;28;45331;-71
2023/09/08 04:53:48;;;;;;;;;12.67;12.00;;;;;24.20;65.54;100168.38;5055848;28;45615;-70
2023/09/08 04:56:14;;;;;;;;;11.33;11.33;;;;;24.28;65.76;100174.34;5054780;28;45438;-70
2023/09/08 04:58:40;;;;;;;;;14.33;14.33;;;;;24.24;65.92;100162.03;5056681;28;45368;-70
2023/09/08 05:01:05;;;;;;;;;12.33;12.00;;;;;24.25;66.22;100152.22;5055265;28;46026;-70
2023/09/08 05:03:31;;;;;;;;;14.00;11.00;;;;;24.29;66.34;100168.09;5040259;28;45327;-70
2023/09/08 05:05:57;;;;;;;;;12.00;11.00;;;;;24.35;66.81;100173.22;5050656;28;45545;-70
2023/09/08 05:08:23;;;;;;;;;12.33;11.33;;;;;24.32;66.37;100162.66;5044602;28;45499;-70
2023/09/08 05:10:49;;;;;;;;;12.00;12.00;;;;;24.42;65.89;100180.09;5055415;28;45425;-70
2023/09/08 05:13:17;;;;;;;;;13.33;12.00;;;;;24.41;66.82;100189.06;5055037;28;45402;-70
2023/09/08 05:15:43;;;;;;;;;13.00;12.33;;;;;24.32;66.63;100173.31;5039617;28;45312;-70
2023/09/08 05:18:09;;;;;;;;;11.33;11.00;;;;;24.44;67.23;100189.88;5052567;28;45479;-70
2023/09/08 05:20:35;;;;;;;;;13.00;12.00;;;;;24.48;66.43;100191.50;5049361;28;45372;-70
2023/09/08 05:23:00;;;;;;;;;11.00;11.00;;;;;24.50;66.35;100198.56;5042926;28;45686;-70
2023/09/08 05:25:26;;;;;;;;;17.00;12.00;;;;;24.50;65.96;100187.00;5049798;28;45431;-71
2023/09/08 05:27:52;;;;;;;;;13.00;11.33;;;;;24.48;65.87;100195.06;5054346;28;45406;-70
2023/09/08 05:30:17;;;;;;;;;12.67;12.33;;;;;24.38;66.91;100191.81;5055196;28;45952;-73
2023/09/08 05:32:43;;;;;;;;;14.00;11.00;;;;;24.26;66.54;100194.88;5054274;28;45442;-70
2023/09/08 05:35:09;;;;;;;;;13.33;11.67;;;;;24.24;66.63;100195.84;5042267;28;45342;-70
2023/09/08 05:37:35;;;;;;;;;15.67;14.33;;;;;24.31;66.32;100211.63;5053268;28;45430;-69
2023/09/08 05:40:00;;;;;;;;;13.33;12.67;;;;;24.31;66.49;100203.63;5052748;28;45497;-75
2023/09/08 05:42:26;;;;;;;;;13.67;13.67;;;;;24.29;66.16;100196.56;5047943;28;45391;-69
2023/09/08 05:44:54;;;;;;;;;11.33;11.00;;;;;24.32;66.98;100210.69;5058730;28;45487;-70
2023/09/08 05:47:20;;;;;;;;;13.33;12.33;;;;;24.36;66.98;100217.69;5042869;28;45277;-78
2023/09/08 05:49:46;;;;;;;;;15.33;14.67;;;;;24.26;66.93;100221.56;5058141;28;45917;-70
2023/09/08 05:52:15;;;;;;;;;11.67;11.00;;;;;24.26;66.46;100208.22;5045394;28;45367;-69
2023/09/08 05:54:40;;;;;;;;;11.33;10.67;;;;;24.29;66.48;100212.59;5049913;28;45519;-72
2023/09/08 05:57:06;;;;;;;;;12.67;11.00;;;;;24.36;66.56;100217.69;5052463;28;45495;-72
2023/09/08 05:59:31;;;;;;;;;12.00;12.00;;;;;24.27;66.87;100201.94;5040833;28;45635;-71
2023/09/08 06:01:57;;;;;;;;;15.00;13.67;;;;;24.26;67.05;100216.22;5041119;28;45511;-71
2023/09/08 06:04:23;;;;;;;;;13.00;12.33;;;;;24.22;66.92;100220.78;5046020;28;45335;-71
2023/09/08 06:06:48;;;;;;;;;13.00;12.00;;;;;24.16;66.82;100220.13;5050418;28;45402;-71
2023/09/08 06:09:16;;;;;;;;;17.67;16.00;;;;;24.19;67.13;100209.31;5049953;28;45799;-71
2023/09/08 06:11:42;;;;;;;;;8.33;8.00;;;;;24.22;66.43;100214.59;5044392;28;45706;-71
2023/09/08 06:14:08;;;;;;;;;11.00;11.00;;;;;24.25;65.96;100224.28;5049636;28;45418;-71
2023/09/08 06:16:33;;;;;;;;;14.00;13.00;;;;;24.26;65.98;100224.25;5049349;28;45426;-71
2023/09/08 06:19:03;;;;;;;;;14.00;14.00;;;;;24.38;66.37;100228.31;5045731;28;46355;-70
2023/09/08 06:21:33;;;;;;;;;14.50;13.50;;;;;24.37;66.45;100214.09;5046546;28;45576;-70
2023/09/08 06:24:08;;;;;;;;;12.33;12.00;;;;;24.54;66.29;100223.38;5055401;28;45626;-70
2023/09/08 06:26:38;;;;;;;;;14.33;14.33;;;;;24.62;66.11;100224.00;5048741;28;45336;-70
2023/09/08 06:29:08;;;;;;;;;17.33;16.00;;;;;24.74;66.01;100223.59;5049820;28;45480;-70
2023/09/08 06:31:43;;;;;;;;;12.33;12.33;;;;;24.84;66.03;100208.13;5047742;28;45284;-70
2023/09/08 06:34:16;;;;;;;;;14.67;13.67;;;;;24.95;65.98;100202.41;5046822;28;45348;-70
2023/09/08 06:36:48;;;;;;;;;12.67;11.67;;;;;24.98;65.89;100216.53;5047450;28;45454;-70
2023/09/08 06:39:21;;;;;;;;;18.00;16.67;;;;;25.07;65.70;100210.00;5047832;28;45320;-70
2023/09/08 06:41:53;;;;;;;;;13.67;12.33;;;;;25.19;65.26;100217.56;5046013;28;45418;-73
2023/09/08 06:44:26;;;;;;;;;11.00;10.00;;;;;25.18;64.90;100205.13;5038556;28;45601;-71
2023/09/08 06:46:53;;;;;;;;;13.00;12.67;;;;;25.38;64.96;100224.97;5038983;28;45423;-71
2023/09/08 06:49:19;;;;;;;;;14.00;13.00;;;;;25.56;64.42;100229.63;5038209;28;46245;-71
2023/09/08 06:51:48;;;;;;;;;11.33;11.00;;;;;25.70;64.42;100229.09;5037925;28;45502;-70
2023/09/08 06:54:14;;;;;;;;;10.33;10.33;;;;;25.91;63.63;100226.59;5042689;28;45572;-70
2023/09/08 06:56:40;;;;;;;;;12.00;11.00;;;;;26.09;62.83;100227.69;5051341;28;45349;-70
2023/09/08 06:59:06;;;;;;;;;13.00;12.33;;;;;26.25;62.91;100230.63;5048004;28;45491;-71
2023/09/08 07:01:31;;;;;;;;;13.33;11.33;;;;;26.47;62.06;100235.97;5042358;28;45721;-70
2023/09/08 07:03:57;;;;;;;;;11.67;11.67;;;;;26.72;61.21;100223.34;5040212;28;45473;-72
2023/09/08 07:06:24;;;;;;;;;12.00;12.00;;;;;27.02;60.80;100232.81;5045169;28;45517;-70
2023/09/08 07:08:52;;;;;;;;;12.67;11.67;;;;;28.15;57.97;100237.56;5043959;28;46130;-70
2023/09/08 07:11:18;;;;;;;;;16.67;14.33;;;;;30.22;53.67;100230.44;5055534;28;45422;-70
2023/09/08 07:13:44;;;;;;;;;17.67;15.33;;;;;31.78;50.13;100228.34;5056237;28;45559;-72
2023/09/08 07:16:10;;;;;;;;;14.00;14.00;;;;;31.97;49.05;100211.81;5045670;28;45525;-71
2023/09/08 07:18:37;;;;;;;;;16.33;15.00;;;;;32.25;48.08;100227.16;5045673;28;45860;-71
2023/09/08 07:21:03;;;;;;;;;11.00;9.33;;;;;32.97;47.14;100221.47;5056870;28;45417;-70
2023/09/08 07:23:29;;;;;;;;;15.00;12.67;;;;;33.16;46.83;100215.66;5052576;28;45460;-71
2023/09/08 07:25:55;;;;;;;;;14.00;13.00;;;;;32.50;47.30;100223.66;5044325;28;45485;-70
2023/09/08 07:28:20;;;;;;;;;12.00;12.00;;;;;32.75;47.49;100232.88;5048615;28;45955;-70
2023/09/08 07:30:46;;;;;;;;;13.00;13.00;;;;;34.51;44.97;100229.44;5053673;28;45457;-69
2023/09/08 07:33:12;;;;;;;;;13.67;12.00;;;;;35.95;42.65;100230.94;5055536;28;45375;-70
2023/09/08 07:35:39;;;;;;;;;11.00;11.00;;;;;37.21;39.23;100235.88;5056121;28;45425;-69
2023/09/08 07:38:05;;;;;;;;;11.00;10.33;;;;;38.00;38.99;100232.50;5046943;28;46071;-78
2023/09/08 07:40:34;;;;;;;;;12.33;12.33;;;;;38.91;37.39;100244.16;5040472;28;45188;-70
2023/09/08 07:43:00;;;;;;;;;12.00;11.00;;;;;39.65;34.75;100244.50;5049723;28;45467;-69
2023/09/08 07:45:25;;;;;;;;;11.00;10.00;;;;;40.05;33.66;100251.53;5043070;28;45425;-69
2023/09/08 07:47:51;;;;;;;;;12.00;10.67;;;;;40.72;32.74;100246.63;5041330;28;45489;-69
2023/09/08 07:50:25;;;;;;;;;12.33;12.00;;;;;40.91;31.96;100248.41;5044266;28;45679;-70
2023/09/08 07:52:53;;;;;;;;;13.00;11.67;;;;;41.47;30.61;100241.63;5050687;28;45524;-69
2023/09/08 07:55:19;;;;;;;;;11.33;11.00;;;;;41.97;31.78;100245.50;5049645;28;45247;-69
2023/09/08 07:57:45;;;;;;;;;10.00;10.00;;;;;42.59;31.57;100247.09;5042575;28;45351;-71
2023/09/08 08:00:12;;;;;;;;;11.33;10.33;;;;;43.16;29.75;100254.47;5048444;28;45521;-69
2023/09/08 08:02:43;;;;;;;;;10.00;10.00;;;;;43.57;29.45;100255.28;5049155;28;45639;-70
2023/09/08 08:05:09;;;;;;;;;13.00;12.00;;;;;43.87;28.78;100241.81;5053615;28;45597;-70
2023/09/08 08:07:35;;;;;;;;;11.67;10.67;;;;;44.27;27.88;100251.81;5049611;28;46219;-72
2023/09/08 08:10:01;;;;;;;;;10.33;10.33;;;;;44.30;27.21;100252.47;5043805;28;45562;-72
2023/09/08 08:12:27;;;;;;;;;11.00;10.67;;;;;43.84;27.94;100250.44;5051707;28;45322;-70
2023/09/08 08:14:52;;;;;;;;;12.00;11.67;;;;;44.14;28.00;100245.19;5056767;28;45568;-70
2023/09/08 08:17:19;;;;;;;;;10.33;9.67;;;;;44.67;27.02;100244.31;5055842;28;45272;-70
2023/09/08 08:19:45;;;;;;;;;12.33;10.33;;;;;45.14;27.51;100242.38;5041149;28;45318;-70
2023/09/08 08:22:11;;;;;;;;;11.00;9.67;;;;;45.53;26.45;100238.56;5047875;28;45392;-70
2023/09/08 08:24:36;;;;;;;;;11.00;9.67;;;;;45.86;26.23;100249.22;5041312;28;45411;-70
2023/09/08 08:27:02;;;;;;;;;10.00;10.00;;;;;45.92;26.02;100237.41;5055943;28;45365;-69
2023/09/08 08:29:29;;;;;;;;;10.33;10.00;;;;;46.12;26.19;100247.88;5055396;28;45668;-70
2023/09/08 08:31:56;;;;;;;;;11.33;11.33;;;;;46.24;25.67;100249.97;5055724;28;45462;-70
2023/09/08 08:34:21;;;;;;;;;11.33;10.67;;;;;46.52;26.33;100264.94;5055039;28;45460;-70
2023/09/08 08:36:47;;;;;;;;;12.67;11.33;;;;;46.77;24.92;100251.59;5054763;28;46031;-71
2023/09/08 08:39:13;;;;;;;;;11.67;11.00;;;;;47.22;25.37;100260.53;5039902;28;45538;-70
2023/09/08 08:41:41;;;;;;;;;11.00;11.00;;;;;47.42;23.88;100253.22;5053732;28;45587;-70
2023/09/08 08:44:07;;;;;;;;;10.67;10.67;;;;;46.85;24.37;100262.53;5048757;28;45362;-70
2023/09/08 08:46:37;;;;;;;;;11.67;10.67;;;;;46.60;25.46;100268.44;5046401;28;46191;-70
2023/09/08 08:49:06;;;;;;;;;12.33;12.00;;;;;46.87;25.31;100270.63;5052975;28;45291;-70
2023/09/08 08:51:32;;;;;;;;;12.00;11.00;;;;;46.53;24.84;100270.25;5040052;28;45494;-70
2023/09/08 08:54:00;;;;;;;;;12.33;12.33;;;;;46.60;25.76;100253.75;5055594;28;45451;-70
2023/09/08 08:56:26;;;;;;;;;10.33;10.33;;;;;47.20;24.96;100260.72;5041446;28;45990;-71
2023/09/08 08:58:52;;;;;;;;;11.33;11.00;;;;;47.32;25.50;100260.19;5051515;28;46486;-70
2023/09/08 09:01:19;;;;;;;;;11.67;11.33;;;;;47.38;25.18;100259.38;5041422;28;45500;-70
2023/09/08 09:03:49;;;;;;;;;15.67;14.00;;;;;47.15;24.81;100268.72;5055111;28;45225;-69
2023/09/08 09:06:15;;;;;;;;;13.67;11.33;;;;;47.25;25.19;100259.28;5042525;28;46106;-70
2023/09/08 09:08:43;;;;;;;;;11.67;11.00;;;;;47.65;25.04;100254.03;5039331;28;45475;-70
2023/09/08 09:11:09;;;;;;;;;11.00;11.00;;;;;47.78;24.90;100251.34;5055507;28;45335;-70
2023/09/08 09:13:35;;;;;;;;;12.33;12.00;;;;;47.88;23.64;100259.25;5055927;28;45427;-70
2023/09/08 09:16:03;;;;;;;;;11.67;9.67;;;;;47.72;24.13;100249.38;5058017;28;46153;-70
2023/09/08 09:18:32;;;;;;;;;12.67;11.33;;;;;47.67;24.30;100255.53;5042161;28;45566;-71
2023/09/08 09:21:02;;;;;;;;;12.33;11.00;;;;;47.50;23.90;100262.44;5058843;28;45394;-70
2023/09/08 09:23:34;;;;;;;;;14.33;13.00;;;;;46.94;25.10;100266.88;5045166;28;45585;-71
2023/09/08 09:26:06;;;;;;;;;12.00;11.00;;;;;47.19;24.01;100261.78;5057357;28;45548;-70
2023/09/08 09:28:32;;;;;;;;;11.00;11.00;;;;;47.10;25.10;100265.72;5058857;28;45406;-70
2023/09/08 09:30:59;;;;;;;;;10.67;10.00;;;;;46.80;25.18;100242.94;5058800;28;45312;-70
2023/09/08 09:33:24;;;;;;;;;14.67;14.00;;;;;46.91;24.41;100260.88;5043152;28;45339;-70
2023/09/08 09:35:54;;;;;;;;;12.33;11.33;;;;;46.24;24.70;100252.72;5043307;28;45443;-70
2023/09/08 09:38:21;;;;;;;;;13.33;11.00;;;;;45.90;24.72;100244.19;5058871;28;45231;-70
2023/09/08 09:40:48;;;;;;;;;13.00;12.00;;;;;45.65;25.78;100247.25;5046291;28;45312;-70
2023/09/08 09:43:16;;;;;;;;;13.67;13.00;;;;;45.86;25.57;100251.97;5047983;28;45347;-70
2023/09/08 09:45:42;;;;;;;;;10.33;10.33;;;;;45.67;25.37;100244.31;5058347;28;45962;-70
2023/09/08 09:48:10;;;;;;;;;11.33;11.00;;;;;45.25;26.35;100247.44;5058158;28;45453;-79
2023/09/08 09:50:41;;;;;;;;;9.67;9.67;;;;;45.64;26.26;100226.19;5058245;28;45407;-70
2023/09/08 09:53:13;;;;;;;;;10.67;10.67;;;;;45.92;25.29;100247.59;5058208;28;45418;-70
2023/09/08 09:55:40;;;;;;;;;10.33;10.33;;;;;46.02;25.40;100246.25;5043487;28;45665;-70
2023/09/08 09:58:07;;;;;;;;;11.67;11.00;;;;;45.64;24.38;100249.13;5055909;28;45451;-70
2023/09/08 10:00:35;;;;;;;;;13.33;12.33;;;;;44.97;25.47;100241.69;5057493;28;45345;-73
2023/09/08 10:03:01;;;;;;;;;11.67;10.67;;;;;44.39;26.46;100246.75;5047337;28;45280;-70
2023/09/08 10:05:27;;;;;;;;;10.00;10.00;;;;;44.68;26.59;100247.94;5037791;28;46040;-72
2023/09/08 10:07:53;;;;;;;;;10.67;10.00;;;;;44.96;25.68;100247.38;5041115;28;45399;-71
2023/09/08 10:10:21;;;;;;;;;12.00;11.00;;;;;45.04;26.35;100236.28;5043198;28;45387;-70
2023/09/08 10:12:53;;;;;;;;;15.33;14.33;;;;;45.22;25.35;100242.31;5058032;28;45497;-71
2023/09/08 10:15:22;;;;;;;;;13.33;11.67;;;;;45.16;24.56;100243.06;5057662;28;45563;-69
2023/09/08 10:17:55;;;;;;;;;9.00;9.00;;;;;45.17;24.78;100246.69;5042351;28;45607;-70
2023/09/08 10:20:23;;;;;;;;;9.33;8.33;;;;;45.18;23.50;100240.97;5057459;28;45418;-70
2023/09/08 10:22:56;;;;;;;;;10.33;9.67;;;;;44.49;23.06;100235.53;5058140;28;45518;-70
2023/09/08 10:25:24;;;;;;;;;10.00;10.00;;;;;43.94;23.50;100226.31;5054563;28;47071;-69
2023/09/08 10:27:51;;;;;;;;;10.67;9.00;;;;;43.61;23.84;100226.41;5057122;28;45552;-70
2023/09/08 10:30:17;;;;;;;;;8.00;8.00;;;;;43.93;24.36;100230.09;5056622;28;45406;-69
2023/09/08 10:32:44;;;;;;;;;12.67;11.00;;;;;43.88;24.15;100194.84;5057452;28;45731;-70
2023/09/08 10:35:10;;;;;;;;;9.00;8.33;;;;;44.08;24.71;100224.72;5056910;28;46289;-71
2023/09/08 10:37:40;;;;;;;;;11.00;11.00;;;;;43.98;24.36;100213.91;5053359;28;45649;-70
2023/09/08 10:40:33;;;;;;;;;10.00;10.00;;;;;44.03;25.37;100218.84;5057342;28;45701;-69
2023/09/08 10:43:09;;;;;;;;;10.00;9.67;;;;;43.97;24.76;100214.94;5043170;28;45454;-69
2023/09/08 10:45:35;;;;;;;;;9.00;9.00;;;;;43.45;24.83;100207.22;5050036;28;46111;-69
2023/09/08 10:48:01;;;;;;;;;12.00;11.33;;;;;43.01;25.28;100208.47;5049447;28;45338;-69
2023/09/08 10:50:34;;;;;;;;;11.00;10.67;;;;;42.83;26.21;100208.63;5041808;28;45498;-69
2023/09/08 10:53:17;;;;;;;;;11.00;11.00;;;;;42.90;25.68;100200.59;5057691;28;45418;-70
2023/09/08 10:55:52;;;;;;;;;10.00;10.00;;;;;42.83;25.85;100200.38;5057098;28;46235;-70
2023/09/08 10:58:28;;;;;;;;;10.33;10.00;;;;;42.44;27.56;100201.09;5055659;28;45520;-72
2023/09/08 11:00:56;;;;;;;;;9.67;9.67;;;;;42.15;27.84;100196.00;5057090;28;45405;-69
2023/09/08 11:03:42;;;;;;;;;13.00;12.00;;;;;41.69;28.31;100196.34;5057311;28;45461;-69
2023/09/08 11:06:09;;;;;;;;;10.00;9.33;;;;;41.48;28.98;100182.16;5049857;28;45502;-71
2023/09/08 11:08:38;;;;;;;;;10.67;10.33;;;;;41.09;30.08;100182.59;5056627;28;45343;-69
2023/09/08 11:11:04;;;;;;;;;11.67;10.67;;;;;40.76;30.56;100171.41;5057004;28;45328;-69